Time;durP1;ratioP1;P1;durP2;ratioP2;P2;SDS_P1;SDS_P2;PMS_P1;PMS_P2;Temp;Humidity;BMP_temperature;BMP_pressure;BME280_temperature;BME280_humidity;BME280_pressure;Samples;Min_cycle;Max_cycle;Signal;HPM_P1;HPM_P2
2023/01/21 00:01:07;;;;;;;;;;;;;;;19.82;42.34;100357.95;106296;1282;61362;-83
2023/01/21 00:03:33;;;;;;;;;;;;;;;19.82;42.31;100357.96;106276;1281;61233;-83
2023/01/21 00:05:58;;;;;;;;;;;;;;;19.82;42.24;100364.05;106172;1282;61279;-83
2023/01/21 00:08:24;;;;;;;;;;;;;;;19.81;42.24;100369.07;106244;1283;60437;-83
2023/01/21 00:10:50;;;;;;;;;;;;;;;19.81;42.33;100372.11;106182;1282;61279;-83
2023/01/21 00:13:15;;;;;;;;;;;;;;;19.81;42.36;100374.09;106078;1283;61337;-83
2023/01/21 00:15:41;;;;;;;;;;;;;;;19.81;42.37;100374.80;106076;1283;61343;-83
2023/01/21 00:18:06;;;;;;;;;;;;;;;19.80;42.10;100374.12;106205;1282;61359;-83
2023/01/21 00:20:32;;;;;;;;;;;;;;;19.80;42.39;100375.56;106139;1287;61368;-82
2023/01/21 00:22:58;;;;;;;;;;;;;;;19.80;42.32;100380.73;106393;1282;61256;-82
2023/01/21 00:25:23;;;;;;;;;;;;;;;19.80;42.43;100376.65;106219;1282;61337;-82
2023/01/21 00:27:50;;;;;;;;;;;;;;;19.80;42.27;100371.28;106210;1281;73321;-82
2023/01/21 00:30:16;;;;;;;;;;;;;;;19.79;42.19;100370.81;106166;1282;61292;-82
2023/01/21 00:32:42;;;;;;;;;;;;;;;19.79;42.35;100374.59;106207;1282;61263;-82
2023/01/21 00:35:08;;;;;;;;;;;;;;;19.79;42.31;100375.65;106213;1281;61362;-82
2023/01/21 00:37:33;;;;;;;;;;;;;;;19.78;42.23;100374.08;106232;1282;61307;-82
2023/01/21 00:39:59;;;;;;;;;;;;;;;19.78;42.25;100366.23;106378;1281;61364;-82
2023/01/21 00:42:26;;;;;;;;;;;;;;;19.78;42.08;100366.80;106237;1283;75360;-82
2023/01/21 00:44:52;;;;;;;;;;;;;;;19.78;42.18;100372.70;106304;1282;61282;-82
2023/01/21 00:47:18;;;;;;;;;;;;;;;19.78;42.22;100378.59;106322;1282;61384;-82
2023/01/21 00:49:43;;;;;;;;;;;;;;;19.76;42.16;100377.93;106308;1282;61176;-82
2023/01/21 00:52:10;;;;;;;;;;;;;;;19.78;42.14;100384.65;106190;1282;61288;-82
2023/01/21 00:54:36;;;;;;;;;;;;;;;19.77;42.21;100399.48;106185;1281;61348;-82
2023/01/21 00:57:01;;;;;;;;;;;;;;;19.77;42.09;100409.88;106191;1281;61327;-82
2023/01/21 00:59:27;;;;;;;;;;;;;;;19.77;42.07;100402.91;106343;1282;61257;-82
2023/01/21 01:01:53;;;;;;;;;;;;;;;19.77;42.11;100402.91;106074;1282;72527;-82
2023/01/21 01:04:19;;;;;;;;;;;;;;;19.76;42.18;100404.03;106286;1282;61295;-82
2023/01/21 01:06:44;;;;;;;;;;;;;;;19.75;42.00;100411.91;106086;1282;61105;-82
2023/01/21 01:09:11;;;;;;;;;;;;;;;19.76;42.17;100422.46;106186;1282;61804;-82
2023/01/21 01:11:38;;;;;;;;;;;;;;;19.75;41.95;100425.71;106309;1281;61257;-82
2023/01/21 01:14:04;;;;;;;;;;;;;;;19.75;42.04;100433.90;106177;1282;61371;-82
2023/01/21 01:16:30;;;;;;;;;;;;;;;19.74;41.94;100435.02;106177;1281;61262;-82
2023/01/21 01:18:55;;;;;;;;;;;;;;;19.74;41.99;100427.90;106181;1280;61418;-82
2023/01/21 01:21:21;;;;;;;;;;;;;;;19.74;41.99;100428.29;106221;1282;61399;-82
2023/01/21 01:23:47;;;;;;;;;;;;;;;19.74;42.03;100431.15;106176;1282;72567;-82
2023/01/21 01:26:14;;;;;;;;;;;;;;;19.74;41.97;100435.96;104615;1282;1954274;-82
2023/01/21 01:28:39;;;;;;;;;;;;;;;19.73;42.01;100437.83;106302;1281;61296;-82
2023/01/21 01:31:05;;;;;;;;;;;;;;;19.73;42.01;100435.85;106185;1282;61253;-82
2023/01/21 01:33:31;;;;;;;;;;;;;;;19.72;41.87;100429.83;106295;1281;61352;-82
2023/01/21 01:36:00;;;;;;;;;;;;;;;19.73;41.95;100428.56;106173;1282;61263;-82
2023/01/21 01:38:26;;;;;;;;;;;;;;;19.72;42.04;100423.98;106178;1281;61378;-82
2023/01/21 01:40:52;;;;;;;;;;;;;;;19.71;41.88;100424.71;106214;1281;59215;-82
2023/01/21 01:43:18;;;;;;;;;;;;;;;19.71;41.95;100427.41;106095;1282;61251;-83
2023/01/21 01:45:43;;;;;;;;;;;;;;;19.71;41.86;100430.11;106187;1282;61299;-82
2023/01/21 01:48:09;;;;;;;;;;;;;;;19.71;41.76;100429.27;106335;1282;61220;-82
2023/01/21 01:50:36;;;;;;;;;;;;;;;19.71;41.69;100434.42;106192;1282;61254;-82
2023/01/21 01:53:02;;;;;;;;;;;;;;;19.70;41.86;100434.98;106200;1282;62567;-83
2023/01/21 01:55:28;;;;;;;;;;;;;;;19.70;41.73;100430.01;106311;1282;61231;-83
2023/01/21 01:57:53;;;;;;;;;;;;;;;19.70;41.75;100428.05;106191;1282;61301;-83
2023/01/21 02:00:19;;;;;;;;;;;;;;;19.69;41.68;100438.45;106296;1282;59227;-83
2023/01/21 02:03:43;;;;;;;;;;;;;;;19.69;41.89;100445.96;106299;1281;61222;-82
2023/01/21 02:05:30;;;;;;;;;;;;;;;19.69;41.67;100450.78;106192;1282;73494;-83
2023/01/21 02:07:56;;;;;;;;;;;;;;;19.69;41.70;100451.35;106187;1281;61302;-84
2023/01/21 02:10:22;;;;;;;;;;;;;;;19.69;41.72;100455.46;106207;1282;61354;-84
2023/01/21 02:12:47;;;;;;;;;;;;;;;19.68;41.54;100457.45;106320;1282;59265;-83
2023/01/21 02:15:13;;;;;;;;;;;;;;;19.68;41.67;100467.64;106073;1282;61250;-83
2023/01/21 02:17:45;;;;;;;;;;;;;;;19.68;41.68;100472.48;106258;1282;61776;-84
2023/01/21 02:20:16;;;;;;;;;;;;;;;19.68;41.66;100470.53;106164;1286;75481;-84
2023/01/21 02:22:47;;;;;;;;;;;;;;;19.67;41.71;100469.31;106197;1282;61161;-85
2023/01/21 02:25:31;;;;;;;;;;;;;;;19.67;41.67;100468.74;106326;1282;59894;-84
2023/01/21 02:28:02;;;;;;;;;;;;;;;19.67;41.56;100476.81;106183;1282;72359;-84
2023/01/21 02:30:35;;;;;;;;;;;;;;;19.66;41.65;100485.08;106334;1281;74558;-84
2023/01/21 02:33:18;;;;;;;;;;;;;;;19.66;41.64;100471.69;106208;1282;61238;-84
2023/01/21 02:35:54;;;;;;;;;;;;;;;19.67;41.54;100478.98;106231;1282;61295;-84
2023/01/21 02:38:46;;;;;;;;;;;;;;;19.66;41.57;100484.39;106344;1282;73660;-84
2023/01/21 02:41:32;;;;;;;;;;;;;;;19.66;41.63;100484.02;106064;1282;73808;-84
2023/01/21 02:44:19;;;;;;;;;;;;;;;19.65;41.71;100470.14;106326;1281;61132;-84
2023/01/21 02:46:52;;;;;;;;;;;;;;;19.65;41.62;100464.83;106331;1281;61541;-83
2023/01/21 02:49:20;;;;;;;;;;;;;;;19.65;41.61;100466.62;106214;1282;73401;-83
2023/01/21 02:51:46;;;;;;;;;;;;;;;19.65;41.58;100475.20;106343;1280;74535;-84
2023/01/21 02:54:32;;;;;;;;;;;;;;;19.64;41.60;100472.54;106228;1281;61089;-84
2023/01/21 02:56:58;;;;;;;;;;;;;;;19.64;41.47;100481.66;106316;1282;61237;-84
2023/01/21 02:59:23;;;;;;;;;;;;;;;19.64;41.60;100487.55;106233;1282;61311;-84
2023/01/21 03:01:54;;;;;;;;;;;;;;;19.64;41.61;100480.44;106343;1282;61268;-85
2023/01/21 03:04:46;;;;;;;;;;;;;;;19.64;41.45;100482.05;106363;1281;61116;-84
2023/01/21 03:07:14;;;;;;;;;;;;;;;19.63;41.49;100474.41;106216;1282;61754;-84
2023/01/21 03:09:40;;;;;;;;;;;;;;;19.63;41.50;100474.09;106232;1282;72273;-84
2023/01/21 03:12:15;;;;;;;;;;;;;;;19.63;41.46;100477.30;106281;1280;60037;-84
2023/01/21 03:17:46;;;;;;;;;;;;;;;19.62;41.54;100473.93;106474;1282;60381;-84
2023/01/21 03:20:18;;;;;;;;;;;;;;;19.63;41.48;100475.02;106343;1282;72609;-84
2023/01/21 03:22:44;;;;;;;;;;;;;;;19.62;41.42;100469.48;106185;1282;74629;-84
2023/01/21 03:25:10;;;;;;;;;;;;;;;19.62;41.37;100461.49;106211;1282;61423;-84
2023/01/21 03:27:37;;;;;;;;;;;;;;;19.61;41.41;100472.02;106069;1282;61349;-83
2023/01/21 03:30:04;;;;;;;;;;;;;;;19.61;41.43;100483.11;106109;1281;59366;-84
2023/01/21 03:32:30;;;;;;;;;;;;;;;19.60;41.36;100490.11;106317;1282;75524;-83
2023/01/21 03:34:55;;;;;;;;;;;;;;;19.61;41.40;100497.61;106224;1282;61298;-84
2023/01/21 03:37:23;;;;;;;;;;;;;;;19.60;41.40;100506.39;106346;1282;60078;-84
2023/01/21 03:40:08;;;;;;;;;;;;;;;19.60;41.40;100507.65;106215;1282;61319;-84
2023/01/21 03:42:34;;;;;;;;;;;;;;;19.59;41.36;100515.19;106298;1284;75452;-84
2023/01/21 03:44:59;;;;;;;;;;;;;;;19.59;41.31;100520.35;106225;1282;61294;-84
2023/01/21 03:47:33;;;;;;;;;;;;;;;19.59;41.30;100525.05;106223;1282;61302;-84
2023/01/21 03:50:12;;;;;;;;;;;;;;;19.59;41.29;100527.55;106171;1282;72549;-83
2023/01/21 03:52:41;;;;;;;;;;;;;;;19.58;41.31;100534.92;106138;1282;74207;-84
2023/01/21 03:55:07;;;;;;;;;;;;;;;19.58;41.36;100539.16;106115;1284;61425;-84
2023/01/21 03:57:34;;;;;;;;;;;;;;;19.57;41.34;100537.09;106148;1282;61260;-84
2023/01/21 04:00:01;;;;;;;;;;;;;;;19.57;41.29;100531.40;106114;1282;73515;-83
2023/01/21 04:02:26;;;;;;;;;;;;;;;19.56;41.30;100515.02;106148;1282;61234;-84
2023/01/21 04:04:52;;;;;;;;;;;;;;;19.57;41.29;100513.02;106165;1283;61400;-83
2023/01/21 04:07:17;;;;;;;;;;;;;;;19.56;41.27;100522.76;106164;1282;61400;-83
2023/01/21 04:09:43;;;;;;;;;;;;;;;19.55;41.20;100530.28;106025;1282;61246;-85
2023/01/21 04:12:36;;;;;;;;;;;;;;;19.55;41.19;100523.14;106063;1283;61272;-85
2023/01/21 04:15:02;;;;;;;;;;;;;;;19.55;41.14;100520.48;105489;1289;75472;-84
2023/01/21 04:17:27;;;;;;;;;;;;;;;19.54;41.22;100524.45;105533;1289;60247;-84
2023/01/21 04:19:53;;;;;;;;;;;;;;;19.55;41.25;100522.12;105669;1288;61288;-84
2023/01/21 04:22:19;;;;;;;;;;;;;;;19.54;41.03;100510.92;105541;1289;61249;-84
2023/01/21 04:24:46;;;;;;;;;;;;;;;19.54;41.05;100524.52;105558;1289;61426;-83
2023/01/21 04:27:12;;;;;;;;;;;;;;;19.54;41.15;100530.93;105549;1289;61276;-83
2023/01/21 04:29:37;;;;;;;;;;;;;;;19.53;41.17;100537.73;105558;1288;61244;-83
2023/01/21 04:32:03;;;;;;;;;;;;;;;19.53;41.11;100542.02;105730;1287;61372;-83
2023/01/21 04:34:54;;;;;;;;;;;;;;;19.53;41.08;100544.02;105529;1289;72390;-83
2023/01/21 04:37:20;;;;;;;;;;;;;;;19.52;41.20;100541.39;105237;1293;74467;-83
2023/01/21 04:39:46;;;;;;;;;;;;;;;19.52;41.15;100537.66;105205;1294;61289;-83
2023/01/21 04:42:11;;;;;;;;;;;;;;;19.52;41.07;100540.69;105210;1295;61726;-83
2023/01/21 04:44:37;;;;;;;;;;;;;;;19.52;41.09;100549.80;105205;1295;59316;-83
2023/01/21 04:47:03;;;;;;;;;;;;;;;19.52;41.18;100552.31;105214;1293;61295;-83
2023/01/21 04:49:30;;;;;;;;;;;;;;;19.52;41.10;100554.60;105139;1295;75403;-84
2023/01/21 04:51:58;;;;;;;;;;;;;;;19.51;41.00;100552.16;105364;1288;61132;-86
2023/01/21 04:54:23;;;;;;;;;;;;;;;19.51;41.16;100555.02;105651;1287;61264;-86
2023/01/21 04:56:49;;;;;;;;;;;;;;;19.51;41.16;100558.06;105537;1292;61276;-85
2023/01/21 04:59:15;;;;;;;;;;;;;;;19.51;40.95;100561.11;105511;1288;61402;-85
2023/01/21 05:01:40;;;;;;;;;;;;;;;19.50;41.09;100561.00;105509;1288;61266;-85
2023/01/21 05:04:06;;;;;;;;;;;;;;;19.50;41.13;100569.37;105687;1292;61430;-85
2023/01/21 05:06:31;;;;;;;;;;;;;;;19.50;41.05;100570.96;105560;1287;61315;-85
2023/01/21 05:08:57;;;;;;;;;;;;;;;19.50;40.97;100573.88;105655;1288;60146;-86
2023/01/21 05:11:22;;;;;;;;;;;;;;;19.49;40.97;100578.01;105558;1288;61452;-84
2023/01/21 05:13:48;;;;;;;;;;;;;;;19.49;40.99;100583.75;105622;1282;61341;-84
2023/01/21 05:16:13;;;;;;;;;;;;;;;19.48;41.00;100586.09;106079;1282;61273;-84
2023/01/21 05:18:48;;;;;;;;;;;;;;;19.48;40.96;100580.77;106099;1282;61293;-84
2023/01/21 05:21:13;;;;;;;;;;;;;;;19.48;40.92;100577.73;106199;1282;73500;-84
2023/01/21 05:23:39;;;;;;;;;;;;;;;19.48;40.98;100580.96;106045;1282;61333;-85
2023/01/21 05:26:04;;;;;;;;;;;;;;;19.47;40.95;100580.98;106266;1282;61253;-84
2023/01/21 05:28:31;;;;;;;;;;;;;;;19.47;40.85;100577.60;106076;1282;61321;-84
2023/01/21 05:31:01;;;;;;;;;;;;;;;19.47;40.89;100584.39;106226;1281;61720;-84
2023/01/21 05:33:33;;;;;;;;;;;;;;;19.47;40.90;100586.89;106317;1283;74268;-84
2023/01/21 05:35:58;;;;;;;;;;;;;;;19.47;40.79;100588.16;106253;1282;61852;-84
2023/01/21 05:38:24;;;;;;;;;;;;;;;19.47;40.83;100596.70;106269;1282;61292;-84
2023/01/21 05:40:49;;;;;;;;;;;;;;;19.46;40.87;100595.15;106363;1282;60086;-84
2023/01/21 05:43:15;;;;;;;;;;;;;;;19.46;40.71;100605.87;106346;1282;61368;-84
2023/01/21 05:45:40;;;;;;;;;;;;;;;19.46;40.87;100608.91;106421;1282;61234;-84
2023/01/21 05:48:06;;;;;;;;;;;;;;;19.46;40.86;100609.43;106082;1282;59924;-84
2023/01/21 05:50:31;;;;;;;;;;;;;;;19.46;40.80;100618.71;106237;1282;61377;-84
2023/01/21 05:52:59;;;;;;;;;;;;;;;19.46;40.66;100622.83;106245;1282;73457;-84
2023/01/21 05:55:24;;;;;;;;;;;;;;;19.47;40.82;100616.38;106240;1282;61279;-85
2023/01/21 05:57:50;;;;;;;;;;;;;;;19.46;40.79;100610.36;106210;1282;61371;-84
2023/01/21 06:00:16;;;;;;;;;;;;;;;19.46;40.90;100606.95;106196;1285;61274;-84
2023/01/21 06:02:41;;;;;;;;;;;;;;;19.46;40.78;100618.05;106182;1282;61126;-84
2023/01/21 06:05:07;;;;;;;;;;;;;;;19.45;40.75;100624.33;106258;1282;61239;-84
2023/01/21 06:07:35;;;;;;;;;;;;;;;19.45;40.65;100626.45;106099;1282;61267;-84
2023/01/21 06:10:01;;;;;;;;;;;;;;;19.45;40.71;100635.75;106093;1282;61129;-84
2023/01/21 06:12:26;;;;;;;;;;;;;;;19.45;40.63;100646.83;106239;1282;61442;-84
2023/01/21 06:14:52;;;;;;;;;;;;;;;19.45;40.78;100649.13;106083;1282;61141;-84
2023/01/21 06:17:17;;;;;;;;;;;;;;;19.45;40.65;100649.33;106076;1282;61308;-84
2023/01/21 06:19:43;;;;;;;;;;;;;;;19.45;40.65;100654.34;106103;1282;61120;-84
2023/01/21 06:22:11;;;;;;;;;;;;;;;19.45;40.68;100662.92;106277;1282;61809;-84
2023/01/21 06:24:36;;;;;;;;;;;;;;;19.45;40.55;100666.98;106166;1282;61113;-84
2023/01/21 06:27:02;;;;;;;;;;;;;;;19.44;40.71;100666.50;106037;1282;61253;-85
2023/01/21 06:29:28;;;;;;;;;;;;;;;19.45;40.58;100666.45;106144;1282;61308;-84
2023/01/21 06:31:53;;;;;;;;;;;;;;;19.45;40.52;100668.08;106239;1282;61382;-84
2023/01/21 06:34:19;;;;;;;;;;;;;;;19.45;40.62;100671.80;106014;1282;61219;-84
2023/01/21 06:36:44;;;;;;;;;;;;;;;19.45;40.62;100672.52;106234;1282;61365;-85
2023/01/21 06:39:10;;;;;;;;;;;;;;;19.45;40.46;100667.33;105976;1282;61263;-85
2023/01/21 06:41:36;;;;;;;;;;;;;;;19.45;40.60;100662.90;105961;1282;61280;-84
2023/01/21 06:44:02;;;;;;;;;;;;;;;19.45;40.63;100668.05;106164;1283;63104;-84
2023/01/21 06:46:27;;;;;;;;;;;;;;;19.45;40.63;100678.79;106050;1283;61356;-84
2023/01/21 06:48:53;;;;;;;;;;;;;;;19.44;40.59;100683.46;106167;1287;61285;-84
2023/01/21 06:51:18;;;;;;;;;;;;;;;19.45;40.54;100687.70;106220;1283;61432;-84
2023/01/21 06:53:44;;;;;;;;;;;;;;;19.44;40.49;100680.98;106138;1287;61225;-84
2023/01/21 06:56:10;;;;;;;;;;;;;;;19.44;40.52;100685.96;106155;1283;61246;-84
2023/01/21 06:58:36;;;;;;;;;;;;;;;19.44;40.43;100692.41;106065;1283;60250;-84
2023/01/21 07:01:02;;;;;;;;;;;;;;;19.44;40.57;100693.65;106172;1283;61286;-84
2023/01/21 07:03:28;;;;;;;;;;;;;;;19.44;40.53;100693.84;105983;1283;60059;-83
2023/01/21 07:05:55;;;;;;;;;;;;;;;19.43;40.46;100692.42;106150;1283;61299;-83
2023/01/21 07:08:20;;;;;;;;;;;;;;;19.43;40.38;100695.80;106110;1283;61282;-84
2023/01/21 07:10:46;;;;;;;;;;;;;;;19.43;40.43;100693.13;106250;1283;61299;-83
2023/01/21 07:13:11;;;;;;;;;;;;;;;19.43;40.52;100693.90;106173;1283;73450;-83
2023/01/21 07:15:37;;;;;;;;;;;;;;;19.43;40.44;100716.54;105975;1283;61267;-84
2023/01/21 07:18:03;;;;;;;;;;;;;;;19.42;40.59;100723.71;106067;1284;61121;-84
2023/01/21 07:20:29;;;;;;;;;;;;;;;19.43;40.56;100714.57;106015;1283;61393;-83
2023/01/21 07:22:54;;;;;;;;;;;;;;;19.42;40.42;100703.56;105954;1285;61345;-83
2023/01/21 07:25:20;;;;;;;;;;;;;;;19.43;40.40;100699.62;106048;1285;60081;-83
2023/01/21 07:27:45;;;;;;;;;;;;;;;19.43;40.38;100694.27;105972;1283;75114;-83
2023/01/21 07:30:16;;;;;;;;;;;;;;;19.42;40.35;100695.40;106009;1284;61225;-83
2023/01/21 07:32:44;;;;;;;;;;;;;;;19.42;40.43;100708.05;106033;1283;61132;-83
2023/01/21 07:35:10;;;;;;;;;;;;;;;19.42;40.33;100712.52;106059;1283;72753;-83
2023/01/21 07:37:35;;;;;;;;;;;;;;;19.42;40.27;100708.59;106015;1283;61350;-83
2023/01/21 07:40:01;;;;;;;;;;;;;;;19.41;40.49;100711.30;106022;1283;61315;-85
2023/01/21 07:42:26;;;;;;;;;;;;;;;19.41;40.37;100712.21;106021;1285;61322;-83
2023/01/21 07:44:52;;;;;;;;;;;;;;;19.41;40.54;100708.08;106053;1285;61276;-83
2023/01/21 07:47:20;;;;;;;;;;;;;;;19.41;40.32;100705.42;106054;1282;73620;-83
2023/01/21 07:49:47;;;;;;;;;;;;;;;19.41;40.44;100706.83;106043;1284;75489;-84
2023/01/21 07:52:13;;;;;;;;;;;;;;;19.41;40.35;100717.38;106065;1285;61284;-83
2023/01/21 07:54:38;;;;;;;;;;;;;;;19.41;40.44;100719.91;106005;1283;61229;-83
2023/01/21 07:57:04;;;;;;;;;;;;;;;19.41;40.43;100718.11;106016;1283;61352;-83
2023/01/21 07:59:30;;;;;;;;;;;;;;;19.41;40.38;100714.91;106015;1284;61280;-83
2023/01/21 08:01:56;;;;;;;;;;;;;;;19.41;40.31;100714.72;105982;1285;61338;-84
2023/01/21 08:04:22;;;;;;;;;;;;;;;19.41;40.40;100717.59;106049;1285;60153;-84
2023/01/21 08:06:55;;;;;;;;;;;;;;;19.41;40.22;100718.68;106039;1284;61238;-84
2023/01/21 08:09:22;;;;;;;;;;;;;;;19.40;40.37;100726.17;106107;1285;75110;-83
2023/01/21 08:11:50;;;;;;;;;;;;;;;19.41;40.28;100729.20;106155;1284;61095;-84
2023/01/21 08:14:16;;;;;;;;;;;;;;;19.40;40.19;100736.00;106081;1283;61131;-84
2023/01/21 08:16:41;;;;;;;;;;;;;;;19.41;40.23;100733.44;106001;1285;61388;-84
2023/01/21 08:19:07;;;;;;;;;;;;;;;19.41;40.33;100734.88;105998;1283;60099;-84
2023/01/21 08:21:33;;;;;;;;;;;;;;;19.40;40.24;100737.05;106031;1287;60076;-83
2023/01/21 08:23:58;;;;;;;;;;;;;;;19.41;40.23;100743.65;106005;1283;61208;-83
2023/01/21 08:26:24;;;;;;;;;;;;;;;19.41;40.25;100749.37;106079;1284;62393;-84
2023/01/21 08:28:51;;;;;;;;;;;;;;;19.41;40.20;100754.53;106005;1283;61320;-83
2023/01/21 08:31:17;;;;;;;;;;;;;;;19.41;40.29;100760.98;106005;1285;74464;-83
2023/01/21 08:33:42;;;;;;;;;;;;;;;19.41;40.36;100763.80;106041;1284;61228;-83
2023/01/21 08:36:08;;;;;;;;;;;;;;;19.41;40.28;100765.43;106037;1283;61263;-83
2023/01/21 08:38:36;;;;;;;;;;;;;;;19.40;40.17;100767.02;106010;1284;61275;-84
2023/01/21 08:41:02;;;;;;;;;;;;;;;19.40;40.22;100765.08;106020;1283;61293;-83
2023/01/21 08:43:28;;;;;;;;;;;;;;;19.40;40.08;100767.41;105999;1285;60095;-83
2023/01/21 08:45:57;;;;;;;;;;;;;;;19.40;40.08;100772.06;106030;1285;61302;-83
2023/01/21 08:48:23;;;;;;;;;;;;;;;19.40;40.12;100780.80;105953;1285;71479;-84
2023/01/21 08:50:48;;;;;;;;;;;;;;;19.40;40.17;100775.84;105887;1285;61350;-84
2023/01/21 08:53:14;;;;;;;;;;;;;;;19.40;40.18;100769.75;105699;1285;61295;-84
2023/01/21 08:55:39;;;;;;;;;;;;;;;19.40;39.98;100775.46;105741;1285;61331;-84
2023/01/21 08:58:05;;;;;;;;;;;;;;;19.40;40.16;100772.79;105765;1285;60082;-84
2023/01/21 09:00:30;;;;;;;;;;;;;;;19.40;40.02;100770.48;105721;1285;72552;-84
2023/01/21 09:02:57;;;;;;;;;;;;;;;19.40;39.97;100769.95;105923;1285;61400;-84
2023/01/21 09:05:23;;;;;;;;;;;;;;;19.40;40.12;100762.27;105910;1285;61239;-84
2023/01/21 09:07:48;;;;;;;;;;;;;;;19.40;40.07;100764.92;105841;1288;61446;-84
2023/01/21 09:10:59;;;;;;;;;;;;;;;19.40;40.07;100758.35;105874;1285;61283;-84
2023/01/21 09:13:03;;;;;;;;;;;;;;;19.40;40.14;100752.61;105887;1285;74309;-84
2023/01/21 09:15:29;;;;;;;;;;;;;;;19.39;40.03;100749.08;105889;1285;60945;-84
2023/01/21 09:17:54;;;;;;;;;;;;;;;19.40;40.14;100745.84;105935;1285;61349;-84
2023/01/21 09:20:20;;;;;;;;;;;;;;;19.40;40.10;100749.58;105896;1285;61249;-85
2023/01/21 09:22:46;;;;;;;;;;;;;;;19.40;40.12;100742.61;105958;1285;61339;-84
2023/01/21 09:25:11;;;;;;;;;;;;;;;19.40;40.05;100729.23;106051;1283;61219;-84
2023/01/21 09:27:37;;;;;;;;;;;;;;;19.40;40.18;100724.96;105997;1284;60877;-85
2023/01/21 09:30:02;;;;;;;;;;;;;;;19.40;39.94;100720.64;106015;1288;61267;-84
2023/01/21 09:32:28;;;;;;;;;;;;;;;19.41;39.96;100715.27;105982;1283;61379;-84
2023/01/21 09:34:53;;;;;;;;;;;;;;;19.41;39.97;100718.47;105950;1285;61308;-84
2023/01/21 09:37:19;;;;;;;;;;;;;;;19.41;40.03;100717.38;106030;1285;61334;-84
2023/01/21 09:39:44;;;;;;;;;;;;;;;19.42;40.02;100714.29;105979;1283;61192;-84
2023/01/21 09:42:14;;;;;;;;;;;;;;;19.42;39.96;100712.33;105969;1285;61329;-84
2023/01/21 09:44:43;;;;;;;;;;;;;;;19.42;40.06;100718.90;106054;1287;72439;-84
2023/01/21 09:47:29;;;;;;;;;;;;;;;19.43;40.02;100716.19;105995;1285;75413;-85
2023/01/21 09:50:04;;;;;;;;;;;;;;;19.44;40.07;100706.88;105977;1283;61167;-85
2023/01/21 09:52:40;;;;;;;;;;;;;;;19.44;39.85;100713.64;106047;1283;61273;-84
2023/01/21 09:55:13;;;;;;;;;;;;;;;19.45;39.97;100709.31;106057;1284;73484;-85
2023/01/21 09:57:42;;;;;;;;;;;;;;;19.45;39.85;100709.98;105986;1283;75397;-85
2023/01/21 10:00:17;;;;;;;;;;;;;;;19.46;39.91;100701.02;106064;1285;60984;-84
2023/01/21 10:02:49;;;;;;;;;;;;;;;19.46;39.87;100702.08;106126;1283;61114;-84
2023/01/21 10:05:26;;;;;;;;;;;;;;;19.47;39.86;100708.85;106055;1285;72544;-84
2023/01/21 10:07:59;;;;;;;;;;;;;;;19.48;39.80;100706.77;106026;1285;74520;-84
2023/01/21 10:10:35;;;;;;;;;;;;;;;19.48;39.84;100699.98;106067;1285;61311;-84
2023/01/21 10:13:07;;;;;;;;;;;;;;;19.49;39.89;100697.08;105954;1288;61354;-85
2023/01/21 10:15:45;;;;;;;;;;;;;;;19.50;39.77;100693.45;106022;1283;72258;-84
2023/01/21 10:18:12;;;;;;;;;;;;;;;19.51;39.93;100689.27;105937;1284;72678;-84
2023/01/21 10:20:38;;;;;;;;;;;;;;;19.51;39.87;100691.73;106001;1283;61247;-84
2023/01/21 10:23:13;;;;;;;;;;;;;;;19.52;39.91;100690.27;106157;1285;61264;-83
2023/01/21 10:25:38;;;;;;;;;;;;;;;19.53;39.81;100687.36;106128;1285;73310;-83
2023/01/21 10:28:05;;;;;;;;;;;;;;;19.53;39.70;100685.02;106085;1285;61310;-84
2023/01/21 10:30:35;;;;;;;;;;;;;;;19.54;39.81;100690.50;105985;1285;61338;-84
2023/01/21 10:33:01;;;;;;;;;;;;;;;19.54;39.71;100683.69;106001;1283;61278;-83
2023/01/21 10:35:33;;;;;;;;;;;;;;;19.54;39.75;100677.97;106095;1288;61291;-83
2023/01/21 10:38:07;;;;;;;;;;;;;;;19.54;39.67;100669.59;106118;1285;74389;-84
2023/01/21 10:40:41;;;;;;;;;;;;;;;19.54;39.84;100668.67;106112;1285;61260;-83
2023/01/21 10:43:14;;;;;;;;;;;;;;;19.55;39.84;100673.30;106030;1285;61138;-83
2023/01/21 10:45:42;;;;;;;;;;;;;;;19.55;39.70;100672.40;105991;1284;72535;-83
2023/01/21 10:48:27;;;;;;;;;;;;;;;19.55;39.69;100664.89;105977;1288;74418;-83
2023/01/21 10:51:11;;;;;;;;;;;;;;;19.55;39.81;100660.27;106060;1283;61120;-83
2023/01/21 10:53:46;;;;;;;;;;;;;;;19.54;39.67;100664.39;106052;1285;61273;-83
2023/01/21 10:56:32;;;;;;;;;;;;;;;19.54;39.75;100664.27;105996;1285;73291;-84
2023/01/21 10:59:08;;;;;;;;;;;;;;;19.53;39.78;100664.11;106051;1283;75527;-84
2023/01/21 11:01:39;;;;;;;;;;;;;;;19.53;39.73;100662.00;105976;1285;61301;-84
2023/01/21 11:04:09;;;;;;;;;;;;;;;19.53;39.73;100659.15;106043;1284;61090;-83
2023/01/21 11:06:34;;;;;;;;;;;;;;;19.52;39.76;100651.90;106026;1285;72297;-85
2023/01/21 11:09:01;;;;;;;;;;;;;;;19.51;39.72;100649.27;106026;1282;61464;-85
2023/01/21 11:11:29;;;;;;;;;;;;;;;19.51;39.66;100647.52;106224;1282;61244;-86
2023/01/21 11:13:54;;;;;;;;;;;;;;;19.51;39.67;100648.58;106201;1281;61282;-85
2023/01/21 11:16:38;;;;;;;;;;;;;;;19.50;39.81;100647.93;106247;1282;60076;-85
2023/01/21 11:19:05;;;;;;;;;;;;;;;19.49;39.76;100658.52;105998;1282;73111;-85
2023/01/21 11:21:30;;;;;;;;;;;;;;;19.48;39.56;100656.78;106207;1282;61170;-85
2023/01/21 11:23:57;;;;;;;;;;;;;;;19.48;39.78;100661.07;106265;1282;61222;-85
2023/01/21 11:26:32;;;;;;;;;;;;;;;19.47;39.72;100662.77;106310;1282;61260;-85
2023/01/21 11:29:04;;;;;;;;;;;;;;;19.47;39.82;100659.92;106268;1282;74620;-85
2023/01/21 11:31:30;;;;;;;;;;;;;;;19.46;39.68;100659.80;106259;1281;61289;-85
2023/01/21 11:33:56;;;;;;;;;;;;;;;19.45;39.77;100657.89;106272;1283;61227;-86
2023/01/21 11:36:21;;;;;;;;;;;;;;;19.45;39.66;100655.05;106268;1282;61319;-85
2023/01/21 11:38:49;;;;;;;;;;;;;;;19.44;39.86;100654.02;106241;1282;61727;-86
2023/01/21 11:41:20;;;;;;;;;;;;;;;19.44;39.71;100648.32;106262;1282;61267;-86
2023/01/21 11:44:09;;;;;;;;;;;;;;;19.44;39.73;100647.42;106294;1282;61331;-85
2023/01/21 11:46:36;;;;;;;;;;;;;;;19.42;39.81;100644.47;106202;1284;72415;-85
2023/01/21 11:49:11;;;;;;;;;;;;;;;19.42;39.74;100645.56;106219;1282;61163;-85
2023/01/21 11:51:37;;;;;;;;;;;;;;;19.42;39.74;100643.27;106307;1282;61330;-85
2023/01/21 11:54:06;;;;;;;;;;;;;;;19.42;39.65;100641.31;106240;1283;60067;-86
2023/01/21 11:56:32;;;;;;;;;;;;;;;19.41;39.82;100636.16;106206;1282;72551;-85
2023/01/21 11:58:57;;;;;;;;;;;;;;;19.41;39.69;100631.54;106212;1286;61342;-86
2023/01/21 12:01:23;;;;;;;;;;;;;;;19.41;39.70;100631.34;106053;1281;61214;-86
2023/01/21 12:03:52;;;;;;;;;;;;;;;19.41;39.69;100628.86;106181;1283;61293;-85
2023/01/21 12:06:18;;;;;;;;;;;;;;;19.41;39.59;100636.77;106172;1282;73190;-85
2023/01/21 12:08:45;;;;;;;;;;;;;;;19.40;39.62;100642.84;105964;1289;61690;-85
2023/01/21 12:11:11;;;;;;;;;;;;;;;19.41;39.73;100641.39;105996;1283;61088;-85
2023/01/21 12:13:40;;;;;;;;;;;;;;;19.41;39.55;100641.52;106173;1282;61265;-85
2023/01/21 12:16:24;;;;;;;;;;;;;;;19.41;39.52;100641.54;106150;1287;72672;-84
2023/01/21 12:18:52;;;;;;;;;;;;;;;19.40;39.56;100644.79;105998;1282;75433;-85
2023/01/21 12:21:36;;;;;;;;;;;;;;;19.41;39.67;100639.42;106125;1284;61221;-85
2023/01/21 12:24:07;;;;;;;;;;;;;;;19.40;39.54;100633.04;106094;1285;60991;-84
2023/01/21 12:26:38;;;;;;;;;;;;;;;19.40;39.44;100632.85;105978;1285;73494;-83
2023/01/21 12:29:22;;;;;;;;;;;;;;;19.41;39.53;100632.42;106091;1284;74328;-84
2023/01/21 12:31:51;;;;;;;;;;;;;;;19.41;39.49;100632.10;106106;1283;61283;-83
2023/01/21 12:34:37;;;;;;;;;;;;;;;19.41;39.67;100636.02;105985;1282;61263;-84